sensor_id;sensor_type;location;lat;lon;timestamp;temperature;humidity
69084;SHT31;56185;48.526;9.044;2023-02-15T00:00:10;1.07;82.16
69084;SHT31;56185;48.526;9.044;2023-02-15T00:02:36;1.04;81.84
69084;SHT31;56185;48.526;9.044;2023-02-15T00:05:01;1.04;81.71
69084;SHT31;56185;48.526;9.044;2023-02-15T00:07:29;1.10;81.34
69084;SHT31;56185;48.526;9.044;2023-02-15T00:09:54;1.17;81.37
69084;SHT31;56185;48.526;9.044;2023-02-15T00:12:19;1.06;81.47
69084;SHT31;56185;48.526;9.044;2023-02-15T00:14:45;1.06;81.91
69084;SHT31;56185;48.526;9.044;2023-02-15T00:17:10;1.03;81.87
69084;SHT31;56185;48.526;9.044;2023-02-15T00:19:35;1.00;81.84
69084;SHT31;56185;48.526;9.044;2023-02-15T00:22:01;0.99;82.50
69084;SHT31;56185;48.526;9.044;2023-02-15T00:24:26;0.85;82.62
69084;SHT31;56185;48.526;9.044;2023-02-15T00:26:51;0.93;81.88
69084;SHT31;56185;48.526;9.044;2023-02-15T00:29:18;0.79;81.67
69084;SHT31;56185;48.526;9.044;2023-02-15T00:31:44;0.82;81.67
69084;SHT31;56185;48.526;9.044;2023-02-15T00:34:18;0.62;81.71
69084;SHT31;56185;48.526;9.044;2023-02-15T00:36:44;0.82;81.76
69084;SHT31;56185;48.526;9.044;2023-02-15T00:39:10;0.73;81.76
69084;SHT31;56185;48.526;9.044;2023-02-15T00:41:35;0.89;82.00
69084;SHT31;56185;48.526;9.044;2023-02-15T00:44:01;0.69;81.74
69084;SHT31;56185;48.526;9.044;2023-02-15T00:46:27;0.58;83.21
69084;SHT31;56185;48.526;9.044;2023-02-15T00:48:52;0.57;82.68
69084;SHT31;56185;48.526;9.044;2023-02-15T00:51:17;0.55;82.56
69084;SHT31;56185;48.526;9.044;2023-02-15T00:53:43;0.58;82.46
69084;SHT31;56185;48.526;9.044;2023-02-15T00:56:08;0.54;82.62
69084;SHT31;56185;48.526;9.044;2023-02-15T00:58:34;0.52;83.09
69084;SHT31;56185;48.526;9.044;2023-02-15T01:01:10;0.41;82.76
69084;SHT31;56185;48.526;9.044;2023-02-15T01:03:36;0.42;82.60
69084;SHT31;56185;48.526;9.044;2023-02-15T01:06:02;0.38;82.40
69084;SHT31;56185;48.526;9.044;2023-02-15T01:08:28;0.55;81.43
69084;SHT31;56185;48.526;9.044;2023-02-15T01:10:53;0.52;80.38
69084;SHT31;56185;48.526;9.044;2023-02-15T01:13:19;0.35;80.74
69084;SHT31;56185;48.526;9.044;2023-02-15T01:15:44;0.27;81.81
69084;SHT31;56185;48.526;9.044;2023-02-15T01:18:10;0.27;82.13
69084;SHT31;56185;48.526;9.044;2023-02-15T01:20:38;0.40;81.64
69084;SHT31;56185;48.526;9.044;2023-02-15T01:23:05;0.49;81.59
69084;SHT31;56185;48.526;9.044;2023-02-15T01:25:34;0.54;81.40
69084;SHT31;56185;48.526;9.044;2023-02-15T01:27:59;0.25;82.64
69084;SHT31;56185;48.526;9.044;2023-02-15T01:30:25;0.18;82.99
69084;SHT31;56185;48.526;9.044;2023-02-15T01:32:50;0.15;83.12
69084;SHT31;56185;48.526;9.044;2023-02-15T01:35:15;0.21;81.75
69084;SHT31;56185;48.526;9.044;2023-02-15T01:37:40;0.25;82.34
69084;SHT31;56185;48.526;9.044;2023-02-15T01:40:09;0.45;81.64
69084;SHT31;56185;48.526;9.044;2023-02-15T01:42:37;0.28;81.02
69084;SHT31;56185;48.526;9.044;2023-02-15T01:45:05;0.24;80.73
69084;SHT31;56185;48.526;9.044;2023-02-15T01:47:56;0.08;81.31
69084;SHT31;56185;48.526;9.044;2023-02-15T01:52:57;0.10;82.55
69084;SHT31;56185;48.526;9.044;2023-02-15T01:55:25;0.06;82.29
69084;SHT31;56185;48.526;9.044;2023-02-15T01:57:52;0.00;82.42
69084;SHT31;56185;48.526;9.044;2023-02-15T02:00:18;0.01;82.10
69084;SHT31;56185;48.526;9.044;2023-02-15T02:02:45;0.00;82.66
69084;SHT31;56185;48.526;9.044;2023-02-15T02:05:11;-0.07;83.44
69084;SHT31;56185;48.526;9.044;2023-02-15T02:07:40;0.01;83.92
69084;SHT31;56185;48.526;9.044;2023-02-15T02:10:11;-0.07;84.42
69084;SHT31;56185;48.526;9.044;2023-02-15T02:12:36;-0.14;84.92
69084;SHT31;56185;48.526;9.044;2023-02-15T02:15:03;-0.23;85.28
69084;SHT31;56185;48.526;9.044;2023-02-15T02:20:55;-0.21;85.10
69084;SHT31;56185;48.526;9.044;2023-02-15T02:33:10;-0.18;82.68
69084;SHT31;56185;48.526;9.044;2023-02-15T02:38:56;-0.07;81.27
69084;SHT31;56185;48.526;9.044;2023-02-15T02:44:21;-0.37;81.34
69084;SHT31;56185;48.526;9.044;2023-02-15T02:46:58;-0.40;81.98
69084;SHT31;56185;48.526;9.044;2023-02-15T02:52:02;-0.40;81.48
69084;SHT31;56185;48.526;9.044;2023-02-15T02:54:28;-0.48;81.90
69084;SHT31;56185;48.526;9.044;2023-02-15T02:56:56;-0.45;82.17
69084;SHT31;56185;48.526;9.044;2023-02-15T02:59:33;-0.40;83.46
69084;SHT31;56185;48.526;9.044;2023-02-15T03:02:19;-0.38;84.04
69084;SHT31;56185;48.526;9.044;2023-02-15T03:04:50;-0.45;84.33
69084;SHT31;56185;48.526;9.044;2023-02-15T03:07:21;-0.50;84.16
69084;SHT31;56185;48.526;9.044;2023-02-15T03:09:51;-0.54;84.75
69084;SHT31;56185;48.526;9.044;2023-02-15T03:12:24;-0.52;83.54
69084;SHT31;56185;48.526;9.044;2023-02-15T03:14:57;-0.41;81.78
69084;SHT31;56185;48.526;9.044;2023-02-15T03:17:26;-0.37;80.64
69084;SHT31;56185;48.526;9.044;2023-02-15T03:19:54;-0.52;80.67
69084;SHT31;56185;48.526;9.044;2023-02-15T03:22:31;-0.52;81.35
69084;SHT31;56185;48.526;9.044;2023-02-15T03:25:02;-0.45;81.46
69084;SHT31;56185;48.526;9.044;2023-02-15T03:27:39;-0.47;82.57
69084;SHT31;56185;48.526;9.044;2023-02-15T03:30:06;-0.52;82.90
69084;SHT31;56185;48.526;9.044;2023-02-15T03:32:33;-0.50;83.18
69084;SHT31;56185;48.526;9.044;2023-02-15T03:34:59;-0.62;82.63
69084;SHT31;56185;48.526;9.044;2023-02-15T03:37:32;-0.60;82.46
69084;SHT31;56185;48.526;9.044;2023-02-15T03:40:23;-0.61;82.03
69084;SHT31;56185;48.526;9.044;2023-02-15T03:42:53;-0.55;82.03
69084;SHT31;56185;48.526;9.044;2023-02-15T03:45:25;-0.30;80.84
69084;SHT31;56185;48.526;9.044;2023-02-15T03:47:54;-0.35;80.38
69084;SHT31;56185;48.526;9.044;2023-02-15T03:50:24;-0.30;79.19
69084;SHT31;56185;48.526;9.044;2023-02-15T03:52:52;-0.57;79.80
69084;SHT31;56185;48.526;9.044;2023-02-15T03:55:18;-0.57;79.71
69084;SHT31;56185;48.526;9.044;2023-02-15T03:57:43;-0.64;79.57
69084;SHT31;56185;48.526;9.044;2023-02-15T04:00:17;-0.68;79.44
69084;SHT31;56185;48.526;9.044;2023-02-15T04:02:55;-0.73;79.34
69084;SHT31;56185;48.526;9.044;2023-02-15T04:05:24;-0.76;78.87
69084;SHT31;56185;48.526;9.044;2023-02-15T04:07:49;-0.83;79.06
69084;SHT31;56185;48.526;9.044;2023-02-15T04:10:14;-0.95;79.62
69084;SHT31;56185;48.526;9.044;2023-02-15T04:12:40;-0.95;79.19
69084;SHT31;56185;48.526;9.044;2023-02-15T04:15:05;-1.07;79.60
69084;SHT31;56185;48.526;9.044;2023-02-15T04:17:33;-1.03;80.06
69084;SHT31;56185;48.526;9.044;2023-02-15T04:19:58;-1.06;79.91
69084;SHT31;56185;48.526;9.044;2023-02-15T04:22:23;-0.97;79.77
69084;SHT31;56185;48.526;9.044;2023-02-15T04:24:49;-1.07;80.31
69084;SHT31;56185;48.526;9.044;2023-02-15T04:27:14;-1.04;80.46
69084;SHT31;56185;48.526;9.044;2023-02-15T04:29:39;-1.12;80.64
69084;SHT31;56185;48.526;9.044;2023-02-15T04:32:04;-1.09;80.58
69084;SHT31;56185;48.526;9.044;2023-02-15T04:34:30;-0.93;79.96
69084;SHT31;56185;48.526;9.044;2023-02-15T04:36:55;-1.02;79.86
69084;SHT31;56185;48.526;9.044;2023-02-15T04:39:20;-1.06;79.97
69084;SHT31;56185;48.526;9.044;2023-02-15T04:41:46;-1.17;80.31
69084;SHT31;56185;48.526;9.044;2023-02-15T04:44:11;-1.21;80.09
69084;SHT31;56185;48.526;9.044;2023-02-15T04:46:37;-1.21;80.19
69084;SHT31;56185;48.526;9.044;2023-02-15T04:49:02;-1.34;81.70
69084;SHT31;56185;48.526;9.044;2023-02-15T04:51:28;-1.33;82.17
69084;SHT31;56185;48.526;9.044;2023-02-15T04:53:53;-1.33;82.06
69084;SHT31;56185;48.526;9.044;2023-02-15T04:56:20;-1.13;81.91
69084;SHT31;56185;48.526;9.044;2023-02-15T04:58:45;-1.20;82.10
69084;SHT31;56185;48.526;9.044;2023-02-15T05:01:10;-1.14;81.92
69084;SHT31;56185;48.526;9.044;2023-02-15T05:03:36;-1.16;82.41
69084;SHT31;56185;48.526;9.044;2023-02-15T05:06:02;-1.24;82.33
69084;SHT31;56185;48.526;9.044;2023-02-15T05:08:28;-1.14;82.43
69084;SHT31;56185;48.526;9.044;2023-02-15T05:10:53;-1.14;81.43
69084;SHT31;56185;48.526;9.044;2023-02-15T05:13:18;-1.12;80.50
69084;SHT31;56185;48.526;9.044;2023-02-15T05:15:48;-1.17;80.68
69084;SHT31;56185;48.526;9.044;2023-02-15T05:18:13;-1.04;79.63
69084;SHT31;56185;48.526;9.044;2023-02-15T05:20:39;-1.21;80.05
69084;SHT31;56185;48.526;9.044;2023-02-15T05:23:04;-1.27;79.53
69084;SHT31;56185;48.526;9.044;2023-02-15T05:25:29;-1.17;79.03
69084;SHT31;56185;48.526;9.044;2023-02-15T05:27:54;-1.39;79.16
69084;SHT31;56185;48.526;9.044;2023-02-15T05:30:20;-1.43;79.30
69084;SHT31;56185;48.526;9.044;2023-02-15T05:32:45;-1.46;79.87
69084;SHT31;56185;48.526;9.044;2023-02-15T05:35:15;-1.64;80.75
69084;SHT31;56185;48.526;9.044;2023-02-15T05:37:40;-1.62;80.38
69084;SHT31;56185;48.526;9.044;2023-02-15T05:40:06;-1.64;81.34
69084;SHT31;56185;48.526;9.044;2023-02-15T05:42:32;-1.71;81.04
69084;SHT31;56185;48.526;9.044;2023-02-15T05:44:57;-1.44;79.74
69084;SHT31;56185;48.526;9.044;2023-02-15T05:47:22;-1.50;80.16
69084;SHT31;56185;48.526;9.044;2023-02-15T05:49:48;-1.62;80.99
69084;SHT31;56185;48.526;9.044;2023-02-15T05:52:13;-1.72;81.11
69084;SHT31;56185;48.526;9.044;2023-02-15T05:54:38;-1.82;82.81
69084;SHT31;56185;48.526;9.044;2023-02-15T05:57:03;-1.72;82.42
69084;SHT31;56185;48.526;9.044;2023-02-15T05:59:28;-1.81;82.39
69084;SHT31;56185;48.526;9.044;2023-02-15T06:01:54;-1.71;83.98
69084;SHT31;56185;48.526;9.044;2023-02-15T06:04:19;-1.75;84.24
69084;SHT31;56185;48.526;9.044;2023-02-15T06:06:44;-1.75;84.96
69084;SHT31;56185;48.526;9.044;2023-02-15T06:09:11;-1.75;85.23
69084;SHT31;56185;48.526;9.044;2023-02-15T06:11:37;-1.64;84.38
69084;SHT31;56185;48.526;9.044;2023-02-15T06:14:02;-1.62;83.79
69084;SHT31;56185;48.526;9.044;2023-02-15T06:16:27;-1.71;84.30
69084;SHT31;56185;48.526;9.044;2023-02-15T06:18:52;-1.68;83.55
69084;SHT31;56185;48.526;9.044;2023-02-15T06:21:17;-1.58;83.29
69084;SHT31;56185;48.526;9.044;2023-02-15T06:23:43;-1.57;82.66
69084;SHT31;56185;48.526;9.044;2023-02-15T06:26:08;-1.58;82.11
69084;SHT31;56185;48.526;9.044;2023-02-15T06:28:33;-1.67;81.53
69084;SHT31;56185;48.526;9.044;2023-02-15T06:30:58;-1.68;80.99
69084;SHT31;56185;48.526;9.044;2023-02-15T06:33:24;-1.81;81.24
69084;SHT31;56185;48.526;9.044;2023-02-15T06:35:49;-1.78;81.50
69084;SHT31;56185;48.526;9.044;2023-02-15T06:38:14;-1.77;81.16
69084;SHT31;56185;48.526;9.044;2023-02-15T06:40:40;-1.70;80.31
69084;SHT31;56185;48.526;9.044;2023-02-15T06:43:05;-1.78;80.28
69084;SHT31;56185;48.526;9.044;2023-02-15T06:45:30;-1.92;80.09
69084;SHT31;56185;48.526;9.044;2023-02-15T06:47:55;-1.92;80.45
69084;SHT31;56185;48.526;9.044;2023-02-15T06:50:20;-1.75;79.31
69084;SHT31;56185;48.526;9.044;2023-02-15T06:52:46;-1.89;79.78
69084;SHT31;56185;48.526;9.044;2023-02-15T06:55:11;-1.88;79.91
69084;SHT31;56185;48.526;9.044;2023-02-15T06:57:36;-1.89;79.56
69084;SHT31;56185;48.526;9.044;2023-02-15T07:00:02;-1.92;80.08
69084;SHT31;56185;48.526;9.044;2023-02-15T07:02:27;-1.89;80.14
69084;SHT31;56185;48.526;9.044;2023-02-15T07:04:53;-1.93;80.13
69084;SHT31;56185;48.526;9.044;2023-02-15T07:07:18;-1.89;79.98
69084;SHT31;56185;48.526;9.044;2023-02-15T07:09:43;-1.91;81.08
69084;SHT31;56185;48.526;9.044;2023-02-15T07:12:09;-1.82;80.63
69084;SHT31;56185;48.526;9.044;2023-02-15T07:14:34;-1.72;80.40
69084;SHT31;56185;48.526;9.044;2023-02-15T07:17:07;-1.70;79.82
69084;SHT31;56185;48.526;9.044;2023-02-15T07:19:35;-1.51;80.15
69084;SHT31;56185;48.526;9.044;2023-02-15T07:22:20;-1.54;80.71
69084;SHT31;56185;48.526;9.044;2023-02-15T07:24:46;-1.40;80.38
69084;SHT31;56185;48.526;9.044;2023-02-15T07:27:11;-1.17;79.63
69084;SHT31;56185;48.526;9.044;2023-02-15T07:29:36;-1.09;79.03
69084;SHT31;56185;48.526;9.044;2023-02-15T07:32:02;-0.93;78.16
69084;SHT31;56185;48.526;9.044;2023-02-15T07:34:30;-0.95;78.83
69084;SHT31;56185;48.526;9.044;2023-02-15T07:36:55;-0.96;79.04
69084;SHT31;56185;48.526;9.044;2023-02-15T07:39:21;-0.91;79.25
69084;SHT31;56185;48.526;9.044;2023-02-15T07:41:46;-0.71;79.20
69084;SHT31;56185;48.526;9.044;2023-02-15T07:44:13;-0.75;79.77
69084;SHT31;56185;48.526;9.044;2023-02-15T07:46:38;-0.68;79.75
69084;SHT31;56185;48.526;9.044;2023-02-15T07:49:03;-0.66;79.76
69084;SHT31;56185;48.526;9.044;2023-02-15T07:51:29;-0.52;79.70
69084;SHT31;56185;48.526;9.044;2023-02-15T07:53:54;-0.32;78.99
69084;SHT31;56185;48.526;9.044;2023-02-15T07:56:19;-0.30;78.87
69084;SHT31;56185;48.526;9.044;2023-02-15T07:58:47;-0.32;79.20
69084;SHT31;56185;48.526;9.044;2023-02-15T08:01:14;-0.25;78.90
69084;SHT31;56185;48.526;9.044;2023-02-15T08:03:39;-0.21;78.77
69084;SHT31;56185;48.526;9.044;2023-02-15T08:06:05;-0.17;78.58
69084;SHT31;56185;48.526;9.044;2023-02-15T08:08:30;-0.17;79.10
69084;SHT31;56185;48.526;9.044;2023-02-15T08:11:18;-0.10;79.46
69084;SHT31;56185;48.526;9.044;2023-02-15T08:13:45;-0.07;79.17
69084;SHT31;56185;48.526;9.044;2023-02-15T08:16:11;-0.07;79.40
69084;SHT31;56185;48.526;9.044;2023-02-15T08:18:36;0.00;79.50
69084;SHT31;56185;48.526;9.044;2023-02-15T08:21:04;0.08;78.70
69084;SHT31;56185;48.526;9.044;2023-02-15T08:23:29;0.11;79.30
69084;SHT31;56185;48.526;9.044;2023-02-15T08:25:54;0.10;79.30
69084;SHT31;56185;48.526;9.044;2023-02-15T08:28:19;0.28;78.87
69084;SHT31;56185;48.526;9.044;2023-02-15T08:30:45;0.41;79.00
69084;SHT31;56185;48.526;9.044;2023-02-15T08:33:10;0.52;78.85
69084;SHT31;56185;48.526;9.044;2023-02-15T08:35:35;0.61;78.58
69084;SHT31;56185;48.526;9.044;2023-02-15T08:38:00;0.70;78.51
69084;SHT31;56185;48.526;9.044;2023-02-15T08:40:26;0.79;78.69
69084;SHT31;56185;48.526;9.044;2023-02-15T08:42:51;0.90;78.69
69084;SHT31;56185;48.526;9.044;2023-02-15T08:45:16;1.01;78.39
69084;SHT31;56185;48.526;9.044;2023-02-15T08:47:42;1.15;78.47
69084;SHT31;56185;48.526;9.044;2023-02-15T08:50:07;1.13;78.15
69084;SHT31;56185;48.526;9.044;2023-02-15T08:52:32;1.16;78.39
69084;SHT31;56185;48.526;9.044;2023-02-15T08:54:58;1.33;78.48
69084;SHT31;56185;48.526;9.044;2023-02-15T08:57:23;1.47;78.07
69084;SHT31;56185;48.526;9.044;2023-02-15T08:59:48;1.55;77.59
69084;SHT31;56185;48.526;9.044;2023-02-15T09:02:13;1.68;77.53
69084;SHT31;56185;48.526;9.044;2023-02-15T09:04:39;1.78;77.37
69084;SHT31;56185;48.526;9.044;2023-02-15T09:07:04;1.95;77.30
69084;SHT31;56185;48.526;9.044;2023-02-15T09:09:29;2.06;76.26
69084;SHT31;56185;48.526;9.044;2023-02-15T09:11:54;2.12;76.02
69084;SHT31;56185;48.526;9.044;2023-02-15T09:14:20;2.25;75.69
69084;SHT31;56185;48.526;9.044;2023-02-15T09:16:46;2.38;75.26
69084;SHT31;56185;48.526;9.044;2023-02-15T09:19:12;2.51;75.25
69084;SHT31;56185;48.526;9.044;2023-02-15T09:21:37;2.58;75.25
69084;SHT31;56185;48.526;9.044;2023-02-15T09:24:05;2.67;75.37
69084;SHT31;56185;48.526;9.044;2023-02-15T09:26:33;2.84;74.92
69084;SHT31;56185;48.526;9.044;2023-02-15T09:29:00;2.91;74.85
69084;SHT31;56185;48.526;9.044;2023-02-15T09:31:28;2.99;74.92
69084;SHT31;56185;48.526;9.044;2023-02-15T09:33:54;3.05;74.76
69084;SHT31;56185;48.526;9.044;2023-02-15T09:36:30;3.23;74.71
69084;SHT31;56185;48.526;9.044;2023-02-15T09:49:54;4.07;70.87
69084;SHT31;56185;48.526;9.044;2023-02-15T09:58:02;4.57;66.20
69084;SHT31;56185;48.526;9.044;2023-02-15T10:01:15;4.79;68.05
69084;SHT31;56185;48.526;9.044;2023-02-15T10:04:11;5.04;68.73
69084;SHT31;56185;48.526;9.044;2023-02-15T10:11:57;5.39;65.71
69084;SHT31;56185;48.526;9.044;2023-02-15T10:15:05;5.52;65.88
69084;SHT31;56185;48.526;9.044;2023-02-15T10:20:41;5.77;65.09
69084;SHT31;56185;48.526;9.044;2023-02-15T10:26:20;6.18;63.10
69084;SHT31;56185;48.526;9.044;2023-02-15T10:28:52;6.37;62.95
69084;SHT31;56185;48.526;9.044;2023-02-15T10:31:27;6.54;62.50
69084;SHT31;56185;48.526;9.044;2023-02-15T10:56:26;7.81;55.60
69084;SHT31;56185;48.526;9.044;2023-02-15T10:59:08;7.92;53.88
69084;SHT31;56185;48.526;9.044;2023-02-15T11:01:41;8.02;55.70
69084;SHT31;56185;48.526;9.044;2023-02-15T11:07:11;8.25;54.96
69084;SHT31;56185;48.526;9.044;2023-02-15T11:09:41;8.47;54.32
69084;SHT31;56185;48.526;9.044;2023-02-15T11:12:11;8.56;54.95
69084;SHT31;56185;48.526;9.044;2023-02-15T11:15:00;8.60;55.19
69084;SHT31;56185;48.526;9.044;2023-02-15T11:17:40;8.67;55.56
69084;SHT31;56185;48.526;9.044;2023-02-15T11:20:27;8.78;55.64
69084;SHT31;56185;48.526;9.044;2023-02-15T11:22:53;8.82;55.42
69084;SHT31;56185;48.526;9.044;2023-02-15T11:25:30;8.95;55.74
69084;SHT31;56185;48.526;9.044;2023-02-15T11:27:56;9.08;56.18
69084;SHT31;56185;48.526;9.044;2023-02-15T11:30:24;9.12;55.83
69084;SHT31;56185;48.526;9.044;2023-02-15T11:32:57;9.12;54.69
69084;SHT31;56185;48.526;9.044;2023-02-15T11:38:11;9.18;55.48
69084;SHT31;56185;48.526;9.044;2023-02-15T11:40:47;9.36;55.19
69084;SHT31;56185;48.526;9.044;2023-02-15T11:43:26;9.50;54.01
69084;SHT31;56185;48.526;9.044;2023-02-15T11:45:53;9.66;53.94
69084;SHT31;56185;48.526;9.044;2023-02-15T11:48:18;9.64;52.01
69084;SHT31;56185;48.526;9.044;2023-02-15T11:50:44;9.60;54.00
69084;SHT31;56185;48.526;9.044;2023-02-15T11:53:13;9.64;52.33
69084;SHT31;56185;48.526;9.044;2023-02-15T11:55:39;9.72;52.51
69084;SHT31;56185;48.526;9.044;2023-02-15T11:58:25;9.93;52.57
69084;SHT31;56185;48.526;9.044;2023-02-15T12:00:58;9.97;52.20
69084;SHT31;56185;48.526;9.044;2023-02-15T12:03:46;10.08;51.74
69084;SHT31;56185;48.526;9.044;2023-02-15T12:12:26;10.31;51.80
69084;SHT31;56185;48.526;9.044;2023-02-15T12:15:11;10.46;50.60
69084;SHT31;56185;48.526;9.044;2023-02-15T12:17:47;10.52;50.74
69084;SHT31;56185;48.526;9.044;2023-02-15T12:22:39;10.79;50.91
69084;SHT31;56185;48.526;9.044;2023-02-15T12:27:53;11.06;49.71
69084;SHT31;56185;48.526;9.044;2023-02-15T12:30:22;11.11;49.67
69084;SHT31;56185;48.526;9.044;2023-02-15T12:32:55;11.23;50.69
69084;SHT31;56185;48.526;9.044;2023-02-15T12:35:29;11.34;48.93
69084;SHT31;56185;48.526;9.044;2023-02-15T12:38:00;11.45;48.91
69084;SHT31;56185;48.526;9.044;2023-02-15T12:40:28;11.62;47.70
69084;SHT31;56185;48.526;9.044;2023-02-15T12:42:53;11.72;48.38
69084;SHT31;56185;48.526;9.044;2023-02-15T12:45:29;11.81;48.51
69084;SHT31;56185;48.526;9.044;2023-02-15T12:48:14;11.86;47.96
69084;SHT31;56185;48.526;9.044;2023-02-15T12:50:41;11.93;48.64
69084;SHT31;56185;48.526;9.044;2023-02-15T12:55:55;12.10;46.55
69084;SHT31;56185;48.526;9.044;2023-02-15T12:58:29;12.09;46.44
69084;SHT31;56185;48.526;9.044;2023-02-15T13:01:22;12.26;46.69
69084;SHT31;56185;48.526;9.044;2023-02-15T13:06:18;12.37;45.03
69084;SHT31;56185;48.526;9.044;2023-02-15T13:08:52;12.53;44.83
69084;SHT31;56185;48.526;9.044;2023-02-15T13:11:25;12.58;43.00
69084;SHT31;56185;48.526;9.044;2023-02-15T13:13:54;12.61;42.59
69084;SHT31;56185;48.526;9.044;2023-02-15T13:16:30;12.64;42.26
69084;SHT31;56185;48.526;9.044;2023-02-15T13:18:56;12.67;42.41
69084;SHT31;56185;48.526;9.044;2023-02-15T13:21:25;12.81;42.86
69084;SHT31;56185;48.526;9.044;2023-02-15T13:23:55;12.88;42.92
69084;SHT31;56185;48.526;9.044;2023-02-15T13:26:23;13.04;41.68
69084;SHT31;56185;48.526;9.044;2023-02-15T13:28:54;13.20;41.11
69084;SHT31;56185;48.526;9.044;2023-02-15T13:31:26;13.19;42.37
69084;SHT31;56185;48.526;9.044;2023-02-15T13:34:09;13.35;41.97
69084;SHT31;56185;48.526;9.044;2023-02-15T13:39:50;13.30;41.18
69084;SHT31;56185;48.526;9.044;2023-02-15T13:42:41;13.28;42.25
69084;SHT31;56185;48.526;9.044;2023-02-15T13:58:48;13.35;42.26
69084;SHT31;56185;48.526;9.044;2023-02-15T14:01:38;13.29;43.55
69084;SHT31;56185;48.526;9.044;2023-02-15T14:20:44;13.20;46.62
69084;SHT31;56185;48.526;9.044;2023-02-15T14:26:06;13.32;46.51
69084;SHT31;56185;48.526;9.044;2023-02-15T14:29:08;13.34;46.35
69084;SHT31;56185;48.526;9.044;2023-02-15T14:31:42;13.46;46.11
69084;SHT31;56185;48.526;9.044;2023-02-15T14:34:21;13.36;46.29
69084;SHT31;56185;48.526;9.044;2023-02-15T14:36:47;13.39;46.37
69084;SHT31;56185;48.526;9.044;2023-02-15T14:39:36;13.34;45.98
69084;SHT31;56185;48.526;9.044;2023-02-15T14:45:17;13.34;45.71
69084;SHT31;56185;48.526;9.044;2023-02-15T14:47:51;13.36;45.57
69084;SHT31;56185;48.526;9.044;2023-02-15T14:50:37;13.40;45.16
69084;SHT31;56185;48.526;9.044;2023-02-15T14:56:19;13.55;44.30
69084;SHT31;56185;48.526;9.044;2023-02-15T15:01:27;13.65;42.42
69084;SHT31;56185;48.526;9.044;2023-02-15T15:03:57;13.50;43.98
69084;SHT31;56185;48.526;9.044;2023-02-15T15:06:32;13.53;44.53
69084;SHT31;56185;48.526;9.044;2023-02-15T15:11:43;13.63;43.38
69084;SHT31;56185;48.526;9.044;2023-02-15T15:14:10;13.66;44.16
69084;SHT31;56185;48.526;9.044;2023-02-15T15:19:09;13.53;44.34
69084;SHT31;56185;48.526;9.044;2023-02-15T15:30:09;13.52;43.25
69084;SHT31;56185;48.526;9.044;2023-02-15T15:40:41;13.42;42.06
69084;SHT31;56185;48.526;9.044;2023-02-15T15:45:53;13.35;41.44
69084;SHT31;56185;48.526;9.044;2023-02-15T15:48:29;13.28;42.12
69084;SHT31;56185;48.526;9.044;2023-02-15T15:51:20;13.28;40.70
69084;SHT31;56185;48.526;9.044;2023-02-15T15:53:48;13.20;42.58
69084;SHT31;56185;48.526;9.044;2023-02-15T15:56:20;12.97;41.47
69084;SHT31;56185;48.526;9.044;2023-02-15T15:58:53;12.84;41.99
69084;SHT31;56185;48.526;9.044;2023-02-15T16:01:25;12.68;40.76
69084;SHT31;56185;48.526;9.044;2023-02-15T16:03:53;12.64;41.63
69084;SHT31;56185;48.526;9.044;2023-02-15T16:06:30;12.57;42.48
69084;SHT31;56185;48.526;9.044;2023-02-15T16:08:56;12.23;43.20
69084;SHT31;56185;48.526;9.044;2023-02-15T16:11:26;12.32;43.52
69084;SHT31;56185;48.526;9.044;2023-02-15T16:13:53;12.09;42.64
69084;SHT31;56185;48.526;9.044;2023-02-15T16:16:21;11.89;42.71
69084;SHT31;56185;48.526;9.044;2023-02-15T16:18:47;11.82;42.97
69084;SHT31;56185;48.526;9.044;2023-02-15T16:21:18;11.62;43.76
69084;SHT31;56185;48.526;9.044;2023-02-15T16:23:55;11.47;44.36
69084;SHT31;56185;48.526;9.044;2023-02-15T16:29:26;11.06;45.83
69084;SHT31;56185;48.526;9.044;2023-02-15T16:34:27;10.75;46.25
69084;SHT31;56185;48.526;9.044;2023-02-15T16:36:52;10.70;46.70
69084;SHT31;56185;48.526;9.044;2023-02-15T16:39:40;10.56;46.56
69084;SHT31;56185;48.526;9.044;2023-02-15T16:42:06;10.45;47.27
69084;SHT31;56185;48.526;9.044;2023-02-15T16:44:32;10.42;47.53
69084;SHT31;56185;48.526;9.044;2023-02-15T16:46:57;10.25;47.54
69084;SHT31;56185;48.526;9.044;2023-02-15T16:49:26;9.95;48.70
69084;SHT31;56185;48.526;9.044;2023-02-15T16:51:57;9.67;49.66
69084;SHT31;56185;48.526;9.044;2023-02-15T16:54:25;9.64;49.51
69084;SHT31;56185;48.526;9.044;2023-02-15T16:56:51;9.49;50.28
69084;SHT31;56185;48.526;9.044;2023-02-15T16:59:29;9.56;50.44
69084;SHT31;56185;48.526;9.044;2023-02-15T17:01:56;9.50;50.64
69084;SHT31;56185;48.526;9.044;2023-02-15T17:07:06;9.53;51.03
69084;SHT31;56185;48.526;9.044;2023-02-15T17:09:51;9.33;51.97
69084;SHT31;56185;48.526;9.044;2023-02-15T17:12:47;9.21;52.04
69084;SHT31;56185;48.526;9.044;2023-02-15T17:15:35;9.11;52.35
69084;SHT31;56185;48.526;9.044;2023-02-15T17:20:33;8.87;53.09
69084;SHT31;56185;48.526;9.044;2023-02-15T17:22:59;8.94;53.14
69084;SHT31;56185;48.526;9.044;2023-02-15T17:25:50;8.74;53.53
69084;SHT31;56185;48.526;9.044;2023-02-15T17:28:18;8.64;53.73
69084;SHT31;56185;48.526;9.044;2023-02-15T17:30:45;8.64;53.99
69084;SHT31;56185;48.526;9.044;2023-02-15T17:36:02;8.39;55.25
69084;SHT31;56185;48.526;9.044;2023-02-15T17:38:28;8.43;55.01
69084;SHT31;56185;48.526;9.044;2023-02-15T17:40:53;8.44;55.04
69084;SHT31;56185;48.526;9.044;2023-02-15T17:43:18;8.37;55.40
69084;SHT31;56185;48.526;9.044;2023-02-15T17:45:48;8.32;55.87
69084;SHT31;56185;48.526;9.044;2023-02-15T17:48:21;8.12;56.50
69084;SHT31;56185;48.526;9.044;2023-02-15T17:50:46;8.16;56.65
69084;SHT31;56185;48.526;9.044;2023-02-15T17:53:14;8.28;56.46
69084;SHT31;56185;48.526;9.044;2023-02-15T17:58:17;8.06;57.42
69084;SHT31;56185;48.526;9.044;2023-02-15T18:00:45;7.96;58.26
69084;SHT31;56185;48.526;9.044;2023-02-15T18:03:11;7.91;58.29
69084;SHT31;56185;48.526;9.044;2023-02-15T18:05:37;7.85;58.80
69084;SHT31;56185;48.526;9.044;2023-02-15T18:08:02;7.71;59.55
69084;SHT31;56185;48.526;9.044;2023-02-15T18:10:27;7.71;59.96
69084;SHT31;56185;48.526;9.044;2023-02-15T18:12:53;7.55;60.57
69084;SHT31;56185;48.526;9.044;2023-02-15T18:15:18;7.64;60.51
69084;SHT31;56185;48.526;9.044;2023-02-15T18:17:45;7.60;60.62
69084;SHT31;56185;48.526;9.044;2023-02-15T18:22:41;7.30;61.94
69084;SHT31;56185;48.526;9.044;2023-02-15T18:25:16;7.27;62.32
69084;SHT31;56185;48.526;9.044;2023-02-15T18:27:42;7.23;62.73
69084;SHT31;56185;48.526;9.044;2023-02-15T18:30:11;7.16;62.39
69084;SHT31;56185;48.526;9.044;2023-02-15T18:32:37;6.99;62.71
69084;SHT31;56185;48.526;9.044;2023-02-15T18:35:03;6.92;62.81
69084;SHT31;56185;48.526;9.044;2023-02-15T18:37:31;6.96;62.38
69084;SHT31;56185;48.526;9.044;2023-02-15T18:39:56;6.96;61.97
69084;SHT31;56185;48.526;9.044;2023-02-15T18:42:24;6.96;62.52
69084;SHT31;56185;48.526;9.044;2023-02-15T18:44:53;6.89;62.69
69084;SHT31;56185;48.526;9.044;2023-02-15T18:47:19;6.88;62.52
69084;SHT31;56185;48.526;9.044;2023-02-15T18:49:44;6.49;63.94
69084;SHT31;56185;48.526;9.044;2023-02-15T18:52:18;6.44;64.13
69084;SHT31;56185;48.526;9.044;2023-02-15T18:54:44;6.51;64.27